sensor_id;sensor_type;location;lat;lon;timestamp;pressure;altitude;pressure_sealevel;temperature;humidity
42859;BME280;28505;56.970;40.998;2023-09-07T00:00:49;100048.63;;;7.07;100.00
42859;BME280;28505;56.970;40.998;2023-09-07T00:06:11;100053.97;;;7.22;100.00
42859;BME280;28505;56.970;40.998;2023-09-07T00:11:33;100058.28;;;7.28;100.00
42859;BME280;28505;56.970;40.998;2023-09-07T00:16:55;100059.88;;;7.09;100.00
42859;BME280;28505;56.970;40.998;2023-09-07T00:22:18;100064.19;;;7.25;100.00
42859;BME280;28505;56.970;40.998;2023-09-07T00:27:40;100067.38;;;6.96;100.00
42859;BME280;28505;56.970;40.998;2023-09-07T00:33:02;100073.28;;;6.88;100.00
42859;BME280;28505;56.970;40.998;2023-09-07T00:38:24;100073.28;;;7.29;100.00
42859;BME280;28505;56.970;40.998;2023-09-07T00:43:46;100074.66;;;7.16;100.00
42859;BME280;28505;56.970;40.998;2023-09-07T00:49:08;100086.16;;;7.22;100.00
42859;BME280;28505;56.970;40.998;2023-09-07T00:54:30;100093.69;;;7.20;100.00
42859;BME280;28505;56.970;40.998;2023-09-07T00:59:52;100094.19;;;7.32;100.00
42859;BME280;28505;56.970;40.998;2023-09-07T01:05:14;100097.69;;;7.38;100.00
42859;BME280;28505;56.970;40.998;2023-09-07T01:10:37;100113.50;;;7.29;100.00
42859;BME280;28505;56.970;40.998;2023-09-07T01:15:59;100110.31;;;7.37;100.00
42859;BME280;28505;56.970;40.998;2023-09-07T01:21:22;100117.81;;;7.66;100.00
42859;BME280;28505;56.970;40.998;2023-09-07T01:26:45;100124.81;;;7.72;100.00
42859;BME280;28505;56.970;40.998;2023-09-07T01:32:11;100108.16;;;7.75;100.00
42859;BME280;28505;56.970;40.998;2023-09-07T01:37:33;100124.72;;;7.97;100.00
42859;BME280;28505;56.970;40.998;2023-09-07T01:42:56;100128.22;;;8.08;100.00
42859;BME280;28505;56.970;40.998;2023-09-07T01:48:18;100130.63;;;8.10;100.00
42859;BME280;28505;56.970;40.998;2023-09-07T01:53:41;100150.75;;;8.17;100.00
42859;BME280;28505;56.970;40.998;2023-09-07T01:59:03;100151.53;;;8.23;100.00
42859;BME280;28505;56.970;40.998;2023-09-07T02:04:25;100151.00;;;8.31;100.00
42859;BME280;28505;56.970;40.998;2023-09-07T02:09:47;100160.16;;;8.10;100.00
42859;BME280;28505;56.970;40.998;2023-09-07T02:15:10;100166.34;;;8.15;100.00
42859;BME280;28505;56.970;40.998;2023-09-07T02:20:35;100160.97;;;8.15;100.00
42859;BME280;28505;56.970;40.998;2023-09-07T02:25:59;100171.72;;;8.05;100.00
42859;BME280;28505;56.970;40.998;2023-09-07T02:31:21;100169.28;;;8.04;100.00
42859;BME280;28505;56.970;40.998;2023-09-07T02:36:43;100163.13;;;8.03;100.00
42859;BME280;28505;56.970;40.998;2023-09-07T02:42:05;100178.97;;;8.10;100.00
42859;BME280;28505;56.970;40.998;2023-09-07T02:47:27;100188.34;;;8.12;100.00
42859;BME280;28505;56.970;40.998;2023-09-07T02:52:49;100194.81;;;7.96;100.00
42859;BME280;28505;56.970;40.998;2023-09-07T02:58:11;100187.84;;;7.95;100.00
42859;BME280;28505;56.970;40.998;2023-09-07T03:03:34;100204.50;;;7.92;100.00
42859;BME280;28505;56.970;40.998;2023-09-07T03:08:57;100211.19;;;7.74;100.00
42859;BME280;28505;56.970;40.998;2023-09-07T03:14:19;100209.56;;;7.68;100.00
42859;BME280;28505;56.970;40.998;2023-09-07T03:19:42;100215.44;;;7.34;100.00
42859;BME280;28505;56.970;40.998;2023-09-07T03:25:04;100226.47;;;7.43;100.00
42859;BME280;28505;56.970;40.998;2023-09-07T03:30:27;100224.59;;;7.43;100.00
42859;BME280;28505;56.970;40.998;2023-09-07T03:35:50;100235.59;;;7.78;100.00
42859;BME280;28505;56.970;40.998;2023-09-07T03:41:13;100239.13;;;7.88;100.00
42859;BME280;28505;56.970;40.998;2023-09-07T03:46:36;100247.44;;;8.02;100.00
42859;BME280;28505;56.970;40.998;2023-09-07T03:51:58;100246.66;;;7.91;100.00
42859;BME280;28505;56.970;40.998;2023-09-07T03:57:20;100257.38;;;8.12;100.00
42859;BME280;28505;56.970;40.998;2023-09-07T04:02:43;100269.19;;;8.16;100.00
42859;BME280;28505;56.970;40.998;2023-09-07T04:08:06;100272.94;;;8.35;100.00
42859;BME280;28505;56.970;40.998;2023-09-07T04:13:28;100267.56;;;8.30;100.00
42859;BME280;28505;56.970;40.998;2023-09-07T04:18:50;100283.41;;;8.52;100.00
42859;BME280;28505;56.970;40.998;2023-09-07T04:24:12;100288.44;;;8.79;100.00
42859;BME280;28505;56.970;40.998;2023-09-07T04:29:35;100283.84;;;8.95;100.00
42859;BME280;28505;56.970;40.998;2023-09-07T04:34:57;100290.34;;;8.84;100.00
42859;BME280;28505;56.970;40.998;2023-09-07T04:40:23;100282.78;;;8.86;100.00
42859;BME280;28505;56.970;40.998;2023-09-07T04:45:46;100292.75;;;8.85;100.00
42859;BME280;28505;56.970;40.998;2023-09-07T04:51:09;100300.72;;;9.11;100.00
42859;BME280;28505;56.970;40.998;2023-09-07T04:56:34;100309.88;;;9.05;100.00
42859;BME280;28505;56.970;40.998;2023-09-07T05:01:59;100307.94;;;9.26;100.00
42859;BME280;28505;56.970;40.998;2023-09-07T05:35:15;100313.34;;;9.75;100.00
42859;BME280;28505;56.970;40.998;2023-09-07T05:40:40;100315.09;;;9.95;100.00
42859;BME280;28505;56.970;40.998;2023-09-07T05:46:03;100327.75;;;10.34;100.00
42859;BME280;28505;56.970;40.998;2023-09-07T05:51:26;100322.69;;;10.27;100.00
42859;BME280;28505;56.970;40.998;2023-09-07T05:56:49;100337.88;;;10.47;100.00
42859;BME280;28505;56.970;40.998;2023-09-07T06:02:11;100332.03;;;10.69;100.00
42859;BME280;28505;56.970;40.998;2023-09-07T06:07:33;100330.94;;;10.70;100.00
42859;BME280;28505;56.970;40.998;2023-09-07T06:12:55;100331.78;;;11.19;100.00
42859;BME280;28505;56.970;40.998;2023-09-07T06:18:17;100333.06;;;11.21;100.00
42859;BME280;28505;56.970;40.998;2023-09-07T06:23:39;100340.53;;;11.30;100.00
42859;BME280;28505;56.970;40.998;2023-09-07T06:29:03;100356.09;;;11.38;100.00
42859;BME280;28505;56.970;40.998;2023-09-07T06:34:25;100357.25;;;11.32;100.00
42859;BME280;28505;56.970;40.998;2023-09-07T06:39:48;100356.56;;;12.07;100.00
42859;BME280;28505;56.970;40.998;2023-09-07T06:45:10;100357.44;;;11.59;100.00
42859;BME280;28505;56.970;40.998;2023-09-07T06:50:33;100365.19;;;11.23;100.00
42859;BME280;28505;56.970;40.998;2023-09-07T06:56:00;100371.47;;;11.61;100.00
42859;BME280;28505;56.970;40.998;2023-09-07T07:01:23;100381.16;;;12.43;100.00
42859;BME280;28505;56.970;40.998;2023-09-07T07:06:45;100394.69;;;12.05;100.00
42859;BME280;28505;56.970;40.998;2023-09-07T07:12:08;100405.28;;;12.21;96.59
42859;BME280;28505;56.970;40.998;2023-09-07T07:17:31;100399.34;;;12.18;95.35
42859;BME280;28505;56.970;40.998;2023-09-07T07:22:56;100392.88;;;11.77;100.00
42859;BME280;28505;56.970;40.998;2023-09-07T07:28:18;100399.75;;;11.45;100.00
42859;BME280;28505;56.970;40.998;2023-09-07T07:33:41;100410.97;;;11.04;100.00
42859;BME280;28505;56.970;40.998;2023-09-07T07:39:04;100415.25;;;11.10;100.00
42859;BME280;28505;56.970;40.998;2023-09-07T07:44:28;100421.09;;;11.17;100.00
42859;BME280;28505;56.970;40.998;2023-09-07T07:49:50;100410.88;;;11.62;100.00
42859;BME280;28505;56.970;40.998;2023-09-07T07:55:12;100400.78;;;11.25;100.00
42859;BME280;28505;56.970;40.998;2023-09-07T08:00:36;100405.94;;;11.21;100.00
42859;BME280;28505;56.970;40.998;2023-09-07T08:05:58;100400.34;;;11.42;100.00
42859;BME280;28505;56.970;40.998;2023-09-07T08:11:21;100412.13;;;11.70;100.00
42859;BME280;28505;56.970;40.998;2023-09-07T08:16:45;100420.81;;;11.43;100.00
42859;BME280;28505;56.970;40.998;2023-09-07T08:22:08;100425.63;;;12.51;98.51
42859;BME280;28505;56.970;40.998;2023-09-07T08:27:30;100425.28;;;12.38;99.51
42859;BME280;28505;56.970;40.998;2023-09-07T08:32:52;100417.56;;;12.97;91.68
42859;BME280;28505;56.970;40.998;2023-09-07T08:38:14;100412.59;;;11.77;96.71
42859;BME280;28505;56.970;40.998;2023-09-07T08:43:45;100412.56;;;12.01;100.00
42859;BME280;28505;56.970;40.998;2023-09-07T08:49:11;100408.22;;;12.57;99.20
42859;BME280;28505;56.970;40.998;2023-09-07T08:54:34;100406.69;;;12.83;96.00
42859;BME280;28505;56.970;40.998;2023-09-07T08:59:56;100413.25;;;12.63;94.57
42859;BME280;28505;56.970;40.998;2023-09-07T09:05:19;100416.69;;;13.98;82.20
42859;BME280;28505;56.970;40.998;2023-09-07T09:10:41;100416.72;;;12.83;86.78
42859;BME280;28505;56.970;40.998;2023-09-07T09:16:04;100420.44;;;12.54;90.76
42859;BME280;28505;56.970;40.998;2023-09-07T09:21:27;100419.94;;;13.31;89.87
42859;BME280;28505;56.970;40.998;2023-09-07T09:26:49;100405.78;;;13.76;81.01
42859;BME280;28505;56.970;40.998;2023-09-07T09:32:18;100396.75;;;13.11;80.25
42859;BME280;28505;56.970;40.998;2023-09-07T09:37:48;100396.19;;;13.92;77.05
42859;BME280;28505;56.970;40.998;2023-09-07T09:43:13;100400.56;;;13.66;83.68
42859;BME280;28505;56.970;40.998;2023-09-07T09:48:35;100398.53;;;13.16;79.81
42859;BME280;28505;56.970;40.998;2023-09-07T09:54:02;100394.91;;;12.93;81.05
42859;BME280;28505;56.970;40.998;2023-09-07T09:59:25;100402.50;;;14.01;75.32
42859;BME280;28505;56.970;40.998;2023-09-07T10:04:47;100405.38;;;13.69;77.02
42859;BME280;28505;56.970;40.998;2023-09-07T10:10:13;100408.22;;;12.89;77.27
42859;BME280;28505;56.970;40.998;2023-09-07T10:15:36;100404.31;;;14.42;72.11
42859;BME280;28505;56.970;40.998;2023-09-07T10:21:00;100387.53;;;13.40;78.70
42859;BME280;28505;56.970;40.998;2023-09-07T10:26:24;100408.94;;;14.64;74.48
42859;BME280;28505;56.970;40.998;2023-09-07T10:31:51;100398.78;;;15.01;69.24
42859;BME280;28505;56.970;40.998;2023-09-07T10:37:14;100395.56;;;13.45;74.06
42859;BME280;28505;56.970;40.998;2023-09-07T10:42:37;100400.34;;;13.76;73.63
42859;BME280;28505;56.970;40.998;2023-09-07T10:48:00;100424.84;;;13.29;78.32
42859;BME280;28505;56.970;40.998;2023-09-07T10:53:30;100409.06;;;11.58;100.00
42859;BME280;28505;56.970;40.998;2023-09-07T10:58:54;100412.44;;;12.30;100.00
42859;BME280;28505;56.970;40.998;2023-09-07T11:04:16;100402.78;;;13.36;100.00
42859;BME280;28505;56.970;40.998;2023-09-07T11:09:42;100417.78;;;13.97;83.17
42859;BME280;28505;56.970;40.998;2023-09-07T11:15:08;100413.00;;;14.75;80.93
42859;BME280;28505;56.970;40.998;2023-09-07T11:20:40;100440.16;;;12.36;100.00
42859;BME280;28505;56.970;40.998;2023-09-07T11:26:13;100429.50;;;11.88;100.00
42859;BME280;28505;56.970;40.998;2023-09-07T11:31:38;100429.81;;;12.05;100.00
42859;BME280;28505;56.970;40.998;2023-09-07T11:37:03;100424.47;;;12.89;100.00
42859;BME280;28505;56.970;40.998;2023-09-07T11:42:25;100420.44;;;13.33;100.00
42859;BME280;28505;56.970;40.998;2023-09-07T11:47:47;100406.50;;;13.68;91.26
42859;BME280;28505;56.970;40.998;2023-09-07T11:53:09;100408.16;;;13.91;80.30
42859;BME280;28505;56.970;40.998;2023-09-07T11:58:31;100407.63;;;12.93;77.84
42859;BME280;28505;56.970;40.998;2023-09-07T12:03:53;100415.88;;;12.69;86.10
42859;BME280;28505;56.970;40.998;2023-09-07T12:09:16;100414.84;;;12.64;88.73
42859;BME280;28505;56.970;40.998;2023-09-07T12:14:39;100411.63;;;13.42;76.31
42859;BME280;28505;56.970;40.998;2023-09-07T12:20:01;100396.03;;;13.75;70.65
42859;BME280;28505;56.970;40.998;2023-09-07T12:25:24;100413.19;;;13.84;66.85
42859;BME280;28505;56.970;40.998;2023-09-07T12:30:47;100412.06;;;13.99;64.32
42859;BME280;28505;56.970;40.998;2023-09-07T12:36:10;100407.84;;;13.93;59.75
42859;BME280;28505;56.970;40.998;2023-09-07T12:41:33;100392.81;;;14.23;60.63
42859;BME280;28505;56.970;40.998;2023-09-07T12:46:55;100397.75;;;14.21;60.08
42859;BME280;28505;56.970;40.998;2023-09-07T12:52:17;100387.38;;;14.59;60.79
42859;BME280;28505;56.970;40.998;2023-09-07T12:57:39;100391.34;;;14.84;64.33
42859;BME280;28505;56.970;40.998;2023-09-07T13:03:01;100387.53;;;14.85;62.64
42859;BME280;28505;56.970;40.998;2023-09-07T13:08:23;100382.22;;;14.13;66.61
42859;BME280;28505;56.970;40.998;2023-09-07T13:13:46;100381.47;;;14.43;62.25
42859;BME280;28505;56.970;40.998;2023-09-07T13:19:08;100380.06;;;14.46;64.99
42859;BME280;28505;56.970;40.998;2023-09-07T13:24:30;100379.22;;;14.59;61.52
42859;BME280;28505;56.970;40.998;2023-09-07T13:29:52;100379.72;;;14.02;62.79
42859;BME280;28505;56.970;40.998;2023-09-07T13:35:14;100380.09;;;13.73;65.02
42859;BME280;28505;56.970;40.998;2023-09-07T13:40:36;100386.19;;;13.24;69.57
42859;BME280;28505;56.970;40.998;2023-09-07T13:45:59;100385.94;;;13.25;73.71
42859;BME280;28505;56.970;40.998;2023-09-07T13:51:24;100391.38;;;12.46;81.70
42859;BME280;28505;56.970;40.998;2023-09-07T13:56:49;100397.09;;;11.88;89.86
42859;BME280;28505;56.970;40.998;2023-09-07T14:02:12;100395.56;;;12.52;89.77
42859;BME280;28505;56.970;40.998;2023-09-07T14:07:34;100389.75;;;12.45;91.76
42859;BME280;28505;56.970;40.998;2023-09-07T14:12:58;100387.59;;;12.09;90.89
42859;BME280;28505;56.970;40.998;2023-09-07T14:18:20;100389.56;;;12.04;88.08
42859;BME280;28505;56.970;40.998;2023-09-07T14:23:43;100380.84;;;12.26;87.12
42859;BME280;28505;56.970;40.998;2023-09-07T14:29:04;100391.28;;;12.51;88.04
42859;BME280;28505;56.970;40.998;2023-09-07T14:34:29;100381.38;;;12.60;87.18
42859;BME280;28505;56.970;40.998;2023-09-07T14:39:51;100387.03;;;12.78;85.23
42859;BME280;28505;56.970;40.998;2023-09-07T14:45:18;100377.59;;;12.10;89.79
42859;BME280;28505;56.970;40.998;2023-09-07T14:50:40;100377.91;;;12.41;88.19
42859;BME280;28505;56.970;40.998;2023-09-07T14:56:03;100365.50;;;12.40;87.14
42859;BME280;28505;56.970;40.998;2023-09-07T15:01:25;100361.59;;;12.13;87.26
42859;BME280;28505;56.970;40.998;2023-09-07T15:06:47;100362.25;;;12.24;86.55
42859;BME280;28505;56.970;40.998;2023-09-07T15:12:09;100371.63;;;11.94;89.08
42859;BME280;28505;56.970;40.998;2023-09-07T15:17:36;100369.44;;;11.72;89.99
42859;BME280;28505;56.970;40.998;2023-09-07T15:22:59;100371.03;;;11.30;90.54
42859;BME280;28505;56.970;40.998;2023-09-07T15:28:25;100360.09;;;11.40;95.03
42859;BME280;28505;56.970;40.998;2023-09-07T15:33:47;100365.13;;;11.04;100.00
42859;BME280;28505;56.970;40.998;2023-09-07T15:39:09;100361.75;;;10.88;100.00
42859;BME280;28505;56.970;40.998;2023-09-07T15:44:32;100359.94;;;10.54;100.00
42859;BME280;28505;56.970;40.998;2023-09-07T15:49:54;100365.34;;;10.49;100.00
42859;BME280;28505;56.970;40.998;2023-09-07T15:55:17;100364.31;;;10.06;100.00
42859;BME280;28505;56.970;40.998;2023-09-07T16:00:40;100365.34;;;10.10;100.00
42859;BME280;28505;56.970;40.998;2023-09-07T16:06:02;100368.56;;;10.17;100.00
42859;BME280;28505;56.970;40.998;2023-09-07T16:11:24;100369.97;;;10.04;100.00
42859;BME280;28505;56.970;40.998;2023-09-07T16:16:48;100365.53;;;9.84;100.00
42859;BME280;28505;56.970;40.998;2023-09-07T16:22:10;100370.38;;;9.77;100.00
42859;BME280;28505;56.970;40.998;2023-09-07T16:27:32;100366.94;;;9.72;100.00
42859;BME280;28505;56.970;40.998;2023-09-07T16:32:59;100365.34;;;9.66;100.00
42859;BME280;28505;56.970;40.998;2023-09-07T16:38:24;100362.28;;;9.82;100.00
42859;BME280;28505;56.970;40.998;2023-09-07T16:43:46;100359.28;;;9.94;100.00
42859;BME280;28505;56.970;40.998;2023-09-07T16:49:08;100351.84;;;9.71;100.00
42859;BME280;28505;56.970;40.998;2023-09-07T16:54:30;100355.31;;;9.76;100.00
42859;BME280;28505;56.970;40.998;2023-09-07T16:59:52;100348.94;;;9.62;100.00
42859;BME280;28505;56.970;40.998;2023-09-07T17:05:17;100343.25;;;9.69;100.00
42859;BME280;28505;56.970;40.998;2023-09-07T17:10:59;100327.47;;;9.52;100.00
42859;BME280;28505;56.970;40.998;2023-09-07T17:16:22;100317.44;;;9.03;100.00
42859;BME280;28505;56.970;40.998;2023-09-07T17:21:45;100318.88;;;8.64;100.00
42859;BME280;28505;56.970;40.998;2023-09-07T17:27:07;100315.59;;;8.93;100.00
42859;BME280;28505;56.970;40.998;2023-09-07T17:32:29;100310.53;;;8.71;100.00
42859;BME280;28505;56.970;40.998;2023-09-07T17:37:51;100316.63;;;9.02;100.00
42859;BME280;28505;56.970;40.998;2023-09-07T17:43:15;100313.97;;;8.92;100.00
42859;BME280;28505;56.970;40.998;2023-09-07T17:48:40;100308.88;;;8.90;100.00
42859;BME280;28505;56.970;40.998;2023-09-07T17:54:02;100317.75;;;8.96;100.00
42859;BME280;28505;56.970;40.998;2023-09-07T17:59:25;100319.88;;;8.99;100.00
42859;BME280;28505;56.970;40.998;2023-09-07T18:04:48;100317.00;;;8.70;100.00
42859;BME280;28505;56.970;40.998;2023-09-07T18:10:11;100318.53;;;8.97;100.00
42859;BME280;28505;56.970;40.998;2023-09-07T18:15:33;100300.34;;;8.53;100.00
42859;BME280;28505;56.970;40.998;2023-09-07T18:20:55;100291.75;;;8.61;100.00
42859;BME280;28505;56.970;40.998;2023-09-07T18:26:31;100297.66;;;8.48;100.00
42859;BME280;28505;56.970;40.998;2023-09-07T18:31:54;100289.06;;;8.15;100.00
42859;BME280;28505;56.970;40.998;2023-09-07T18:37:16;100279.91;;;8.36;100.00
42859;BME280;28505;56.970;40.998;2023-09-07T18:42:39;100271.31;;;7.78;100.00
42859;BME280;28505;56.970;40.998;2023-09-07T18:48:01;100269.72;;;8.28;100.00
42859;BME280;28505;56.970;40.998;2023-09-07T18:53:23;100259.25;;;8.16;100.00
42859;BME280;28505;56.970;40.998;2023-09-07T18:58:45;100250.41;;;8.21;100.00
42859;BME280;28505;56.970;40.998;2023-09-07T19:04:12;100253.63;;;8.03;100.00
42859;BME280;28505;56.970;40.998;2023-09-07T19:09:34;100247.44;;;8.17;100.00
42859;BME280;28505;56.970;40.998;2023-09-07T19:14:56;100238.03;;;8.20;100.00
42859;BME280;28505;56.970;40.998;2023-09-07T19:20:18;100239.09;;;8.34;100.00
42859;BME280;28505;56.970;40.998;2023-09-07T19:25:40;100226.75;;;8.23;100.00
42859;BME280;28505;56.970;40.998;2023-09-07T19:31:03;100226.47;;;8.45;100.00
42859;BME280;28505;56.970;40.998;2023-09-07T19:36:26;100214.91;;;8.39;100.00
42859;BME280;28505;56.970;40.998;2023-09-07T19:41:49;100202.56;;;8.23;100.00
42859;BME280;28505;56.970;40.998;2023-09-07T19:47:13;100206.59;;;8.31;100.00
42859;BME280;28505;56.970;40.998;2023-09-07T19:52:36;100197.75;;;8.10;100.00
42859;BME280;28505;56.970;40.998;2023-09-07T19:57:58;100198.56;;;8.15;100.00
42859;BME280;28505;56.970;40.998;2023-09-07T20:03:20;100195.03;;;8.35;100.00
42859;BME280;28505;56.970;40.998;2023-09-07T20:08:42;100197.75;;;8.25;100.00
42859;BME280;28505;56.970;40.998;2023-09-07T20:14:04;100193.47;;;8.09;100.00
42859;BME280;28505;56.970;40.998;2023-09-07T20:19:39;100180.00;;;8.14;100.00
42859;BME280;28505;56.970;40.998;2023-09-07T20:25:02;100183.81;;;8.08;100.00
42859;BME280;28505;56.970;40.998;2023-09-07T20:30:24;100174.66;;;8.14;100.00
42859;BME280;28505;56.970;40.998;2023-09-07T20:35:47;100165.53;;;8.15;100.00
42859;BME280;28505;56.970;40.998;2023-09-07T20:41:10;100171.41;;;8.17;100.00
42859;BME280;28505;56.970;40.998;2023-09-07T20:46:32;100173.28;;;8.47;100.00
42859;BME280;28505;56.970;40.998;2023-09-07T20:51:55;100165.72;;;8.49;100.00
42859;BME280;28505;56.970;40.998;2023-09-07T20:57:17;100161.69;;;8.47;100.00
42859;BME280;28505;56.970;40.998;2023-09-07T21:02:40;100161.44;;;8.33;100.00
42859;BME280;28505;56.970;40.998;2023-09-07T21:08:02;100153.13;;;8.44;100.00
42859;BME280;28505;56.970;40.998;2023-09-07T21:13:25;100148.03;;;8.38;100.00
42859;BME280;28505;56.970;40.998;2023-09-07T21:18:47;100139.16;;;8.32;100.00
42859;BME280;28505;56.970;40.998;2023-09-07T21:24:09;100135.66;;;8.47;100.00
42859;BME280;28505;56.970;40.998;2023-09-07T21:29:32;100118.50;;;8.38;100.00
42859;BME280;28505;56.970;40.998;2023-09-07T21:34:54;100118.94;;;8.60;100.00
42859;BME280;28505;56.970;40.998;2023-09-07T21:40:16;100117.63;;;8.53;100.00
42859;BME280;28505;56.970;40.998;2023-09-07T21:45:39;100103.97;;;8.34;100.00
42859;BME280;28505;56.970;40.998;2023-09-07T21:51:01;100104.22;;;8.48;100.00
42859;BME280;28505;56.970;40.998;2023-09-07T21:56:23;100091.28;;;8.50;100.00
42859;BME280;28505;56.970;40.998;2023-09-07T22:01:45;100096.41;;;8.51;100.00
42859;BME280;28505;56.970;40.998;2023-09-07T22:07:07;100107.38;;;8.60;100.00
42859;BME280;28505;56.970;40.998;2023-09-07T22:12:29;100108.72;;;8.62;100.00
42859;BME280;28505;56.970;40.998;2023-09-07T22:17:51;100105.31;;;8.41;100.00
42859;BME280;28505;56.970;40.998;2023-09-07T22:23:17;100100.75;;;8.27;100.00
42859;BME280;28505;56.970;40.998;2023-09-07T22:28:56;100098.88;;;8.32;100.00
42859;BME280;28505;56.970;40.998;2023-09-07T22:34:18;100099.41;;;8.29;100.00
42859;BME280;28505;56.970;40.998;2023-09-07T22:39:40;100094.28;;;8.33;100.00
42859;BME280;28505;56.970;40.998;2023-09-07T22:45:02;100089.81;;;8.18;100.00
42859;BME280;28505;56.970;40.998;2023-09-07T22:50:26;100082.88;;;7.96;100.00
42859;BME280;28505;56.970;40.998;2023-09-07T22:55:48;100089.38;;;7.75;100.00
42859;BME280;28505;56.970;40.998;2023-09-07T23:01:10;100083.41;;;7.93;100.00
42859;BME280;28505;56.970;40.998;2023-09-07T23:06:32;100078.09;;;7.73;100.00
42859;BME280;28505;56.970;40.998;2023-09-07T23:11:56;100067.38;;;7.58;100.00
42859;BME280;28505;56.970;40.998;2023-09-07T23:17:19;100072.16;;;7.91;100.00
42859;BME280;28505;56.970;40.998;2023-09-07T23:22:43;100040.47;;;7.93;100.00
42859;BME280;28505;56.970;40.998;2023-09-07T23:28:06;100039.97;;;7.71;100.00
42859;BME280;28505;56.970;40.998;2023-09-07T23:33:28;100039.19;;;7.55;100.00
42859;BME280;28505;56.970;40.998;2023-09-07T23:38:50;100041.59;;;7.72;100.00
42859;BME280;28505;56.970;40.998;2023-09-07T23:44:12;100026.09;;;7.43;100.00
42859;BME280;28505;56.970;40.998;2023-09-07T23:49:34;100014.03;;;7.41;100.00
42859;BME280;28505;56.970;40.998;2023-09-07T23:54:57;100009.66;;;7.76;100.00
